sensor_id;sensor_type;location;lat;lon;timestamp;pressure;altitude;pressure_sealevel;temperature;humidity
66479;BME280;53294;47.912;13.526;2023-11-21T00:02:17;95706.72;;;9.21;60.59
66479;BME280;53294;47.912;13.526;2023-11-21T00:04:44;95713.06;;;9.25;62.08
66479;BME280;53294;47.912;13.526;2023-11-21T00:07:12;95701.34;;;9.21;63.24
66479;BME280;53294;47.912;13.526;2023-11-21T00:09:39;95695.19;;;9.06;62.41
66479;BME280;53294;47.912;13.526;2023-11-21T00:12:05;95689.66;;;9.03;61.11
66479;BME280;53294;47.912;13.526;2023-11-21T00:14:37;95688.06;;;9.02;60.84
66479;BME280;53294;47.912;13.526;2023-11-21T00:17:05;95687.47;;;9.05;61.74
66479;BME280;53294;47.912;13.526;2023-11-21T00:19:33;95686.66;;;9.04;61.85
66479;BME280;53294;47.912;13.526;2023-11-21T00:22:01;95687.47;;;9.05;62.03
66479;BME280;53294;47.912;13.526;2023-11-21T00:24:28;95684.28;;;8.89;61.34
66479;BME280;53294;47.912;13.526;2023-11-21T00:26:54;95686.97;;;8.89;61.51
66479;BME280;53294;47.912;13.526;2023-11-21T00:29:21;95695.00;;;8.89;61.77
66479;BME280;53294;47.912;13.526;2023-11-21T00:31:48;95702.63;;;8.95;61.32
66479;BME280;53294;47.912;13.526;2023-11-21T00:34:15;95693.59;;;8.91;62.02
66479;BME280;53294;47.912;13.526;2023-11-21T00:36:41;95692.81;;;8.91;61.08
66479;BME280;53294;47.912;13.526;2023-11-21T00:39:08;95690.25;;;9.00;60.48
66479;BME280;53294;47.912;13.526;2023-11-21T00:41:35;95692.63;;;9.01;60.88
66479;BME280;53294;47.912;13.526;2023-11-21T00:44:03;95702.34;;;8.97;61.18
66479;BME280;53294;47.912;13.526;2023-11-21T00:46:30;95688.84;;;9.02;60.76
66479;BME280;53294;47.912;13.526;2023-11-21T00:48:58;95683.31;;;9.12;59.78
66479;BME280;53294;47.912;13.526;2023-11-21T00:51:24;95682.88;;;9.05;59.94
66479;BME280;53294;47.912;13.526;2023-11-21T00:53:51;95693.50;;;9.10;59.95
66479;BME280;53294;47.912;13.526;2023-11-21T00:56:18;95693.81;;;9.23;59.76
66479;BME280;53294;47.912;13.526;2023-11-21T00:58:44;95692.81;;;9.19;60.54
66479;BME280;53294;47.912;13.526;2023-11-21T01:01:16;95688.06;;;9.15;60.23
66479;BME280;53294;47.912;13.526;2023-11-21T01:03:43;95688.44;;;9.23;59.75
66479;BME280;53294;47.912;13.526;2023-11-21T01:06:10;95682.78;;;9.24;59.87
66479;BME280;53294;47.912;13.526;2023-11-21T01:08:40;95688.44;;;9.23;59.97
66479;BME280;53294;47.912;13.526;2023-11-21T01:11:06;95693.03;;;9.22;60.31
66479;BME280;53294;47.912;13.526;2023-11-21T01:13:34;95684.66;;;8.96;61.09
66479;BME280;53294;47.912;13.526;2023-11-21T01:16:02;95690.81;;;8.83;62.40
66479;BME280;53294;47.912;13.526;2023-11-21T01:18:30;95694.91;;;8.94;61.32
66479;BME280;53294;47.912;13.526;2023-11-21T01:20:57;95694.00;;;8.98;61.46
66479;BME280;53294;47.912;13.526;2023-11-21T01:23:23;95681.81;;;9.06;60.20
66479;BME280;53294;47.912;13.526;2023-11-21T01:25:50;95682.28;;;9.08;60.08
66479;BME280;53294;47.912;13.526;2023-11-21T01:28:18;95686.28;;;8.97;61.61
66479;BME280;53294;47.912;13.526;2023-11-21T01:30:46;95698.59;;;8.98;62.86
66479;BME280;53294;47.912;13.526;2023-11-21T01:33:13;95694.97;;;8.75;62.40
66479;BME280;53294;47.912;13.526;2023-11-21T01:35:42;95688.72;;;8.79;61.84
66479;BME280;53294;47.912;13.526;2023-11-21T01:38:09;95686.06;;;8.79;62.12
66479;BME280;53294;47.912;13.526;2023-11-21T01:40:36;95689.31;;;8.76;61.78
66479;BME280;53294;47.912;13.526;2023-11-21T01:43:03;95687.56;;;8.86;61.01
66479;BME280;53294;47.912;13.526;2023-11-21T01:45:32;95687.44;;;8.91;61.32
66479;BME280;53294;47.912;13.526;2023-11-21T01:48:00;95684.66;;;8.96;62.24
66479;BME280;53294;47.912;13.526;2023-11-21T01:50:29;95690.94;;;9.05;61.17
66479;BME280;53294;47.912;13.526;2023-11-21T01:52:56;95687.66;;;9.08;60.64
66479;BME280;53294;47.912;13.526;2023-11-21T01:55:23;95691.94;;;9.09;61.18
66479;BME280;53294;47.912;13.526;2023-11-21T01:57:55;95698.38;;;9.08;61.04
66479;BME280;53294;47.912;13.526;2023-11-21T02:00:22;95703.94;;;8.98;61.45
66479;BME280;53294;47.912;13.526;2023-11-21T02:02:51;95700.84;;;8.91;62.05
66479;BME280;53294;47.912;13.526;2023-11-21T02:05:19;95701.72;;;8.86;63.25
66479;BME280;53294;47.912;13.526;2023-11-21T02:07:46;95703.31;;;8.73;63.42
66479;BME280;53294;47.912;13.526;2023-11-21T02:10:15;95704.97;;;8.69;63.21
66479;BME280;53294;47.912;13.526;2023-11-21T02:12:42;95710.56;;;8.54;64.43
66479;BME280;53294;47.912;13.526;2023-11-21T02:15:13;95706.53;;;8.37;65.43
66479;BME280;53294;47.912;13.526;2023-11-21T02:17:47;95698.44;;;8.42;64.52
66479;BME280;53294;47.912;13.526;2023-11-21T02:20:23;95696.78;;;8.27;63.73
66479;BME280;53294;47.912;13.526;2023-11-21T02:22:53;95699.59;;;8.36;65.55
66479;BME280;53294;47.912;13.526;2023-11-21T02:25:33;95697.91;;;8.40;66.53
66479;BME280;53294;47.912;13.526;2023-11-21T02:28:01;95693.06;;;8.42;66.73
66479;BME280;53294;47.912;13.526;2023-11-21T02:30:29;95686.13;;;8.41;66.19
66479;BME280;53294;47.912;13.526;2023-11-21T02:32:59;95681.22;;;8.49;65.55
66479;BME280;53294;47.912;13.526;2023-11-21T02:35:26;95678.19;;;8.36;64.28
66479;BME280;53294;47.912;13.526;2023-11-21T02:37:54;95676.59;;;8.35;65.26
66479;BME280;53294;47.912;13.526;2023-11-21T02:40:21;95677.66;;;8.34;65.81
66479;BME280;53294;47.912;13.526;2023-11-21T02:42:48;95678.78;;;8.33;65.70
66479;BME280;53294;47.912;13.526;2023-11-21T02:45:15;95684.31;;;8.37;65.56
66479;BME280;53294;47.912;13.526;2023-11-21T02:47:44;95681.50;;;8.28;66.22
66479;BME280;53294;47.912;13.526;2023-11-21T02:50:11;95678.16;;;8.22;66.29
66479;BME280;53294;47.912;13.526;2023-11-21T02:52:38;95677.19;;;8.32;66.37
66479;BME280;53294;47.912;13.526;2023-11-21T02:55:06;95668.47;;;8.40;66.07
66479;BME280;53294;47.912;13.526;2023-11-21T02:57:36;95670.34;;;8.40;65.63
66479;BME280;53294;47.912;13.526;2023-11-21T03:00:03;95654.00;;;8.41;66.24
66479;BME280;53294;47.912;13.526;2023-11-21T03:02:30;95657.38;;;8.33;64.51
66479;BME280;53294;47.912;13.526;2023-11-21T03:04:57;95655.59;;;8.42;65.01
66479;BME280;53294;47.912;13.526;2023-11-21T03:07:23;95657.63;;;8.51;64.79
66479;BME280;53294;47.912;13.526;2023-11-21T03:09:50;95653.44;;;8.44;66.29
66479;BME280;53294;47.912;13.526;2023-11-21T03:12:17;95659.16;;;8.38;66.91
66479;BME280;53294;47.912;13.526;2023-11-21T03:14:43;95656.69;;;8.41;66.42
66479;BME280;53294;47.912;13.526;2023-11-21T03:17:10;95654.59;;;8.38;66.49
66479;BME280;53294;47.912;13.526;2023-11-21T03:19:38;95651.59;;;8.26;66.54
66479;BME280;53294;47.912;13.526;2023-11-21T03:22:04;95652.06;;;8.14;66.96
66479;BME280;53294;47.912;13.526;2023-11-21T03:24:31;95654.34;;;8.21;67.14
66479;BME280;53294;47.912;13.526;2023-11-21T03:26:58;95653.34;;;8.17;67.54
66479;BME280;53294;47.912;13.526;2023-11-21T03:29:25;95643.50;;;8.12;67.77
66479;BME280;53294;47.912;13.526;2023-11-21T03:31:52;95646.41;;;8.16;67.13
66479;BME280;53294;47.912;13.526;2023-11-21T03:34:27;95640.25;;;8.15;67.46
66479;BME280;53294;47.912;13.526;2023-11-21T03:36:54;95643.03;;;8.10;67.28
66479;BME280;53294;47.912;13.526;2023-11-21T03:39:22;95642.25;;;8.09;67.36
66479;BME280;53294;47.912;13.526;2023-11-21T03:41:49;95647.75;;;7.99;67.63
66479;BME280;53294;47.912;13.526;2023-11-21T03:44:16;95634.56;;;8.03;67.35
66479;BME280;53294;47.912;13.526;2023-11-21T03:46:44;95641.72;;;8.07;67.22
66479;BME280;53294;47.912;13.526;2023-11-21T03:49:11;95638.63;;;8.00;67.55
66479;BME280;53294;47.912;13.526;2023-11-21T03:51:37;95639.63;;;8.04;67.36
66479;BME280;53294;47.912;13.526;2023-11-21T03:54:04;95645.41;;;8.12;66.38
66479;BME280;53294;47.912;13.526;2023-11-21T03:56:31;95642.63;;;8.17;66.27
66479;BME280;53294;47.912;13.526;2023-11-21T03:58:57;95643.81;;;8.11;66.57
66479;BME280;53294;47.912;13.526;2023-11-21T04:01:24;95648.38;;;8.10;66.15
66479;BME280;53294;47.912;13.526;2023-11-21T04:03:51;95650.75;;;8.12;66.23
66479;BME280;53294;47.912;13.526;2023-11-21T04:06:18;95651.34;;;8.08;66.61
66479;BME280;53294;47.912;13.526;2023-11-21T04:08:45;95655.09;;;8.07;66.57
66479;BME280;53294;47.912;13.526;2023-11-21T04:11:12;95654.09;;;8.03;65.76
66479;BME280;53294;47.912;13.526;2023-11-21T04:13:39;95647.75;;;7.99;66.06
66479;BME280;53294;47.912;13.526;2023-11-21T04:16:07;95644.00;;;8.00;65.45
66479;BME280;53294;47.912;13.526;2023-11-21T04:18:38;95643.41;;;8.03;65.39
66479;BME280;53294;47.912;13.526;2023-11-21T04:21:05;95632.13;;;8.06;65.14
66479;BME280;53294;47.912;13.526;2023-11-21T04:23:32;95636.88;;;8.09;65.45
66479;BME280;53294;47.912;13.526;2023-11-21T04:25:59;95639.81;;;8.27;65.81
66479;BME280;53294;47.912;13.526;2023-11-21T04:28:29;95638.31;;;8.21;66.28
66479;BME280;53294;47.912;13.526;2023-11-21T04:30:56;95636.00;;;8.14;66.13
66479;BME280;53294;47.912;13.526;2023-11-21T04:33:22;95636.94;;;8.23;66.18
66479;BME280;53294;47.912;13.526;2023-11-21T04:35:49;95635.53;;;8.26;65.69
66479;BME280;53294;47.912;13.526;2023-11-21T04:38:16;95643.56;;;8.26;65.50
66479;BME280;53294;47.912;13.526;2023-11-21T04:40:43;95639.31;;;8.25;65.66
66479;BME280;53294;47.912;13.526;2023-11-21T04:43:09;95642.56;;;8.22;65.60
66479;BME280;53294;47.912;13.526;2023-11-21T04:45:36;95640.06;;;8.12;65.82
66479;BME280;53294;47.912;13.526;2023-11-21T04:48:03;95644.03;;;8.14;65.67
66479;BME280;53294;47.912;13.526;2023-11-21T04:50:30;95638.88;;;8.18;65.83
66479;BME280;53294;47.912;13.526;2023-11-21T04:52:57;95644.38;;;8.07;66.54
66479;BME280;53294;47.912;13.526;2023-11-21T04:55:24;95640.78;;;7.98;67.58
66479;BME280;53294;47.912;13.526;2023-11-21T04:57:54;95645.28;;;7.84;68.97
66479;BME280;53294;47.912;13.526;2023-11-21T05:00:21;95647.91;;;7.51;71.54
66479;BME280;53294;47.912;13.526;2023-11-21T05:02:48;95654.03;;;7.32;71.99
66479;BME280;53294;47.912;13.526;2023-11-21T05:05:15;95648.59;;;7.37;71.50
66479;BME280;53294;47.912;13.526;2023-11-21T05:07:42;95649.13;;;7.40;71.18
66479;BME280;53294;47.912;13.526;2023-11-21T05:10:09;95646.22;;;7.55;70.19
66479;BME280;53294;47.912;13.526;2023-11-21T05:12:38;95646.97;;;7.61;69.79
66479;BME280;53294;47.912;13.526;2023-11-21T05:15:05;95649.22;;;7.72;69.23
66479;BME280;53294;47.912;13.526;2023-11-21T05:17:39;95649.63;;;7.80;68.75
66479;BME280;53294;47.912;13.526;2023-11-21T05:20:10;95652.16;;;7.90;67.49
66479;BME280;53294;47.912;13.526;2023-11-21T05:22:39;95655.25;;;7.97;67.61
66479;BME280;53294;47.912;13.526;2023-11-21T05:25:06;95655.91;;;7.89;67.63
66479;BME280;53294;47.912;13.526;2023-11-21T05:27:37;95661.53;;;7.87;67.10
66479;BME280;53294;47.912;13.526;2023-11-21T05:30:06;95655.41;;;7.87;67.35
66479;BME280;53294;47.912;13.526;2023-11-21T05:32:33;95662.56;;;7.72;68.69
66479;BME280;53294;47.912;13.526;2023-11-21T05:35:00;95670.72;;;7.62;69.98
66479;BME280;53294;47.912;13.526;2023-11-21T05:37:27;95664.34;;;7.58;70.67
66479;BME280;53294;47.912;13.526;2023-11-21T05:39:55;95669.78;;;7.53;71.09
66479;BME280;53294;47.912;13.526;2023-11-21T05:42:24;95671.75;;;7.47;71.94
66479;BME280;53294;47.912;13.526;2023-11-21T05:44:51;95675.97;;;7.48;72.20
66479;BME280;53294;47.912;13.526;2023-11-21T05:47:18;95674.69;;;7.46;72.26
66479;BME280;53294;47.912;13.526;2023-11-21T05:49:45;95679.41;;;7.54;72.25
66479;BME280;53294;47.912;13.526;2023-11-21T05:52:16;95684.75;;;7.54;72.32
66479;BME280;53294;47.912;13.526;2023-11-21T05:54:44;95671.31;;;7.59;71.96
66479;BME280;53294;47.912;13.526;2023-11-21T05:57:10;95686.94;;;7.71;71.70
66479;BME280;53294;47.912;13.526;2023-11-21T05:59:37;95685.78;;;7.77;71.88
66479;BME280;53294;47.912;13.526;2023-11-21T06:02:04;95685.03;;;7.71;72.39
66479;BME280;53294;47.912;13.526;2023-11-21T06:04:31;95689.44;;;7.62;72.78
66479;BME280;53294;47.912;13.526;2023-11-21T06:06:58;95690.09;;;7.54;73.35
66479;BME280;53294;47.912;13.526;2023-11-21T06:09:25;95691.81;;;7.45;74.02
66479;BME280;53294;47.912;13.526;2023-11-21T06:11:52;95692.84;;;7.49;73.98
66479;BME280;53294;47.912;13.526;2023-11-21T06:14:18;95694.56;;;7.40;74.67
66479;BME280;53294;47.912;13.526;2023-11-21T06:16:45;95684.75;;;7.54;74.04
66479;BME280;53294;47.912;13.526;2023-11-21T06:19:12;95685.53;;;7.54;74.22
66479;BME280;53294;47.912;13.526;2023-11-21T06:21:39;95684.59;;;7.64;74.10
66479;BME280;53294;47.912;13.526;2023-11-21T06:24:05;95689.94;;;7.64;73.71
66479;BME280;53294;47.912;13.526;2023-11-21T06:26:33;95686.41;;;7.69;73.54
66479;BME280;53294;47.912;13.526;2023-11-21T06:29:01;95690.97;;;7.68;73.50
66479;BME280;53294;47.912;13.526;2023-11-21T06:31:30;95695.28;;;7.64;73.64
66479;BME280;53294;47.912;13.526;2023-11-21T06:33:56;95703.81;;;7.66;73.60
66479;BME280;53294;47.912;13.526;2023-11-21T06:36:24;95714.44;;;7.71;73.52
66479;BME280;53294;47.912;13.526;2023-11-21T06:38:51;95707.44;;;7.76;73.74
66479;BME280;53294;47.912;13.526;2023-11-21T06:41:18;95711.06;;;7.85;73.90
66479;BME280;53294;47.912;13.526;2023-11-21T06:43:44;95709.97;;;7.86;74.33
66479;BME280;53294;47.912;13.526;2023-11-21T06:46:13;95715.88;;;7.83;74.85
66479;BME280;53294;47.912;13.526;2023-11-21T06:48:43;95717.78;;;7.82;75.35
66479;BME280;53294;47.912;13.526;2023-11-21T06:51:10;95707.09;;;7.82;75.11
66479;BME280;53294;47.912;13.526;2023-11-21T06:53:37;95709.38;;;7.70;75.45
66479;BME280;53294;47.912;13.526;2023-11-21T06:56:14;95714.00;;;7.64;76.00
66479;BME280;53294;47.912;13.526;2023-11-21T06:58:41;95719.88;;;7.66;76.20
66479;BME280;53294;47.912;13.526;2023-11-21T07:01:08;95720.44;;;7.63;75.64
66479;BME280;53294;47.912;13.526;2023-11-21T07:03:35;95724.63;;;7.69;76.19
66479;BME280;53294;47.912;13.526;2023-11-21T07:06:04;95732.94;;;7.68;75.91
66479;BME280;53294;47.912;13.526;2023-11-21T07:08:31;95740.22;;;7.62;76.57
66479;BME280;53294;47.912;13.526;2023-11-21T07:10:58;95742.16;;;7.57;77.67
66479;BME280;53294;47.912;13.526;2023-11-21T07:13:24;95736.22;;;7.41;78.90
66479;BME280;53294;47.912;13.526;2023-11-21T07:15:52;95744.13;;;7.51;78.16
66479;BME280;53294;47.912;13.526;2023-11-21T07:18:19;95748.44;;;7.47;79.02
66479;BME280;53294;47.912;13.526;2023-11-21T07:20:46;95748.16;;;7.48;79.36
66479;BME280;53294;47.912;13.526;2023-11-21T07:23:12;95752.69;;;7.48;79.56
66479;BME280;53294;47.912;13.526;2023-11-21T07:25:39;95749.25;;;7.47;79.47
66479;BME280;53294;47.912;13.526;2023-11-21T07:28:08;95761.97;;;7.55;79.33
66479;BME280;53294;47.912;13.526;2023-11-21T07:30:35;95755.22;;;7.58;79.54
66479;BME280;53294;47.912;13.526;2023-11-21T07:33:01;95760.19;;;7.70;79.12
66479;BME280;53294;47.912;13.526;2023-11-21T07:35:28;95758.88;;;7.67;79.08
66479;BME280;53294;47.912;13.526;2023-11-21T07:37:55;95761.59;;;7.62;80.01
66479;BME280;53294;47.912;13.526;2023-11-21T07:40:22;95749.28;;;7.66;80.23
66479;BME280;53294;47.912;13.526;2023-11-21T07:42:49;95757.69;;;7.54;81.00
66479;BME280;53294;47.912;13.526;2023-11-21T07:45:17;95758.66;;;7.64;81.70
66479;BME280;53294;47.912;13.526;2023-11-21T07:47:44;95756.97;;;7.49;81.87
66479;BME280;53294;47.912;13.526;2023-11-21T07:50:11;95763.84;;;7.31;82.79
66479;BME280;53294;47.912;13.526;2023-11-21T07:52:38;95764.69;;;7.26;84.19
66479;BME280;53294;47.912;13.526;2023-11-21T07:55:05;95758.59;;;7.21;84.37
66479;BME280;53294;47.912;13.526;2023-11-21T07:57:31;95764.75;;;7.21;84.61
66479;BME280;53294;47.912;13.526;2023-11-21T07:59:59;95759.53;;;7.35;85.76
66479;BME280;53294;47.912;13.526;2023-11-21T08:02:27;95765.28;;;7.47;85.52
66479;BME280;53294;47.912;13.526;2023-11-21T08:04:54;95757.16;;;7.33;85.44
66479;BME280;53294;47.912;13.526;2023-11-21T08:07:23;95755.03;;;7.30;84.02
66479;BME280;53294;47.912;13.526;2023-11-21T08:09:50;95762.25;;;7.54;84.99
66479;BME280;53294;47.912;13.526;2023-11-21T08:12:17;95755.69;;;7.65;83.94
66479;BME280;53294;47.912;13.526;2023-11-21T08:14:44;95759.59;;;7.73;82.81
66479;BME280;53294;47.912;13.526;2023-11-21T08:17:11;95753.47;;;7.72;82.93
66479;BME280;53294;47.912;13.526;2023-11-21T08:19:40;95757.72;;;7.73;83.16
66479;BME280;53294;47.912;13.526;2023-11-21T08:22:07;95756.00;;;7.83;83.96
66479;BME280;53294;47.912;13.526;2023-11-21T08:24:34;95754.94;;;7.84;83.00
66479;BME280;53294;47.912;13.526;2023-11-21T08:27:01;95755.88;;;7.93;82.78
66479;BME280;53294;47.912;13.526;2023-11-21T08:29:27;95759.50;;;8.02;82.31
66479;BME280;53294;47.912;13.526;2023-11-21T08:31:54;95750.81;;;8.11;80.33
66479;BME280;53294;47.912;13.526;2023-11-21T08:34:21;95754.59;;;8.09;80.57
66479;BME280;53294;47.912;13.526;2023-11-21T08:36:48;95760.16;;;8.13;79.99
66479;BME280;53294;47.912;13.526;2023-11-21T08:39:15;95754.44;;;8.20;80.05
66479;BME280;53294;47.912;13.526;2023-11-21T08:41:43;95760.78;;;8.24;79.76
66479;BME280;53294;47.912;13.526;2023-11-21T08:44:09;95763.53;;;8.38;78.43
66479;BME280;53294;47.912;13.526;2023-11-21T08:46:36;95768.59;;;8.39;78.86
66479;BME280;53294;47.912;13.526;2023-11-21T08:49:04;95766.94;;;8.43;78.31
66479;BME280;53294;47.912;13.526;2023-11-21T08:51:32;95770.34;;;8.30;77.57
66479;BME280;53294;47.912;13.526;2023-11-21T08:53:59;95770.91;;;8.27;77.64
66479;BME280;53294;47.912;13.526;2023-11-21T08:56:27;95769.91;;;8.23;78.01
66479;BME280;53294;47.912;13.526;2023-11-21T08:58:54;95778.72;;;8.04;78.37
66479;BME280;53294;47.912;13.526;2023-11-21T09:01:20;95779.00;;;8.03;78.44
66479;BME280;53294;47.912;13.526;2023-11-21T09:03:47;95776.66;;;8.20;77.97
66479;BME280;53294;47.912;13.526;2023-11-21T09:06:14;95775.91;;;8.15;77.46
66479;BME280;53294;47.912;13.526;2023-11-21T09:08:41;95775.81;;;8.20;77.89
66479;BME280;53294;47.912;13.526;2023-11-21T09:11:08;95774.25;;;8.19;77.83
66479;BME280;53294;47.912;13.526;2023-11-21T09:13:35;95772.81;;;8.26;77.44
66479;BME280;53294;47.912;13.526;2023-11-21T09:16:03;95775.81;;;8.20;77.38
66479;BME280;53294;47.912;13.526;2023-11-21T09:18:30;95779.94;;;8.12;78.33
66479;BME280;53294;47.912;13.526;2023-11-21T09:20:57;95777.06;;;8.08;79.28
66479;BME280;53294;47.912;13.526;2023-11-21T09:23:24;95790.00;;;8.01;80.50
66479;BME280;53294;47.912;13.526;2023-11-21T09:25:51;95786.06;;;7.75;80.30
66479;BME280;53294;47.912;13.526;2023-11-21T09:28:18;95787.44;;;7.48;81.85
66479;BME280;53294;47.912;13.526;2023-11-21T09:30:45;95796.84;;;7.64;82.70
66479;BME280;53294;47.912;13.526;2023-11-21T09:33:12;95791.09;;;7.57;83.38
66479;BME280;53294;47.912;13.526;2023-11-21T09:35:38;95796.34;;;7.62;83.94
66479;BME280;53294;47.912;13.526;2023-11-21T09:38:05;95792.53;;;7.68;83.79
66479;BME280;53294;47.912;13.526;2023-11-21T09:40:37;95785.94;;;7.61;83.70
66479;BME280;53294;47.912;13.526;2023-11-21T09:43:06;95798.97;;;7.67;84.15
66479;BME280;53294;47.912;13.526;2023-11-21T09:45:35;95796.81;;;7.69;84.44
66479;BME280;53294;47.912;13.526;2023-11-21T09:48:02;95798.00;;;7.58;83.51
66479;BME280;53294;47.912;13.526;2023-11-21T09:50:30;95798.22;;;7.86;83.66
66479;BME280;53294;47.912;13.526;2023-11-21T09:53:20;95792.28;;;7.89;83.87
66479;BME280;53294;47.912;13.526;2023-11-21T09:55:51;95790.00;;;8.01;82.70
66479;BME280;53294;47.912;13.526;2023-11-21T09:58:19;95787.75;;;8.08;82.34
66479;BME280;53294;47.912;13.526;2023-11-21T10:00:48;95779.44;;;8.10;82.09
66479;BME280;53294;47.912;13.526;2023-11-21T10:03:15;95773.59;;;8.27;81.15
66479;BME280;53294;47.912;13.526;2023-11-21T10:05:43;95775.41;;;8.51;79.78
66479;BME280;53294;47.912;13.526;2023-11-21T10:08:12;95782.94;;;8.49;79.34
66479;BME280;53294;47.912;13.526;2023-11-21T10:10:44;95775.91;;;8.53;79.92
66479;BME280;53294;47.912;13.526;2023-11-21T10:13:17;95775.84;;;8.58;80.18
66479;BME280;53294;47.912;13.526;2023-11-21T10:15:52;95769.69;;;8.57;79.76
66479;BME280;53294;47.912;13.526;2023-11-21T10:18:19;95778.63;;;8.67;79.49
66479;BME280;53294;47.912;13.526;2023-11-21T10:20:49;95772.06;;;8.59;79.17
66479;BME280;53294;47.912;13.526;2023-11-21T10:23:21;95776.44;;;8.55;79.52
66479;BME280;53294;47.912;13.526;2023-11-21T10:25:50;95773.50;;;8.70;79.32
66479;BME280;53294;47.912;13.526;2023-11-21T10:28:18;95770.00;;;8.70;78.49
66479;BME280;53294;47.912;13.526;2023-11-21T10:30:47;95770.06;;;8.51;79.56
66479;BME280;53294;47.912;13.526;2023-11-21T10:33:14;95766.06;;;8.67;79.92
66479;BME280;53294;47.912;13.526;2023-11-21T10:38:08;95762.38;;;8.63;78.84
66479;BME280;53294;47.912;13.526;2023-11-21T10:40:38;95753.25;;;8.64;78.72
66479;BME280;53294;47.912;13.526;2023-11-21T10:43:09;95759.09;;;8.99;77.75
66479;BME280;53294;47.912;13.526;2023-11-21T10:45:37;95755.34;;;9.14;77.19
66479;BME280;53294;47.912;13.526;2023-11-21T10:48:07;95757.72;;;9.15;77.04
66479;BME280;53294;47.912;13.526;2023-11-21T10:50:35;95753.16;;;9.16;76.49
66479;BME280;53294;47.912;13.526;2023-11-21T10:53:05;95754.63;;;9.08;75.66
66479;BME280;53294;47.912;13.526;2023-11-21T10:55:33;95754.34;;;9.24;75.13
66479;BME280;53294;47.912;13.526;2023-11-21T10:58:04;95757.53;;;9.26;73.85
66479;BME280;53294;47.912;13.526;2023-11-21T11:00:33;95759.41;;;9.11;73.96
66479;BME280;53294;47.912;13.526;2023-11-21T11:03:00;95760.47;;;9.10;74.37
66479;BME280;53294;47.912;13.526;2023-11-21T11:05:29;95763.81;;;8.88;75.77
66479;BME280;53294;47.912;13.526;2023-11-21T11:07:57;95762.06;;;8.97;76.48
66479;BME280;53294;47.912;13.526;2023-11-21T11:10:30;95768.44;;;9.15;74.63
66479;BME280;53294;47.912;13.526;2023-11-21T11:12:58;95757.91;;;9.05;74.91
66479;BME280;53294;47.912;13.526;2023-11-21T11:15:26;95762.28;;;9.01;75.06
66479;BME280;53294;47.912;13.526;2023-11-21T11:17:54;95756.09;;;8.87;75.90
66479;BME280;53294;47.912;13.526;2023-11-21T11:20:32;95760.41;;;8.69;76.25
66479;BME280;53294;47.912;13.526;2023-11-21T11:26:12;95758.91;;;9.09;75.45
66479;BME280;53294;47.912;13.526;2023-11-21T11:28:50;95765.25;;;9.13;75.66
66479;BME280;53294;47.912;13.526;2023-11-21T11:31:31;95763.13;;;9.43;74.33
66479;BME280;53294;47.912;13.526;2023-11-21T11:37:03;95762.91;;;9.67;72.84
66479;BME280;53294;47.912;13.526;2023-11-21T11:39:41;95760.63;;;9.61;70.91
66479;BME280;53294;47.912;13.526;2023-11-21T11:42:14;95756.44;;;9.55;70.82
66479;BME280;53294;47.912;13.526;2023-11-21T11:47:19;95759.84;;;9.46;70.76
66479;BME280;53294;47.912;13.526;2023-11-21T11:50:05;95758.34;;;9.54;70.88
66479;BME280;53294;47.912;13.526;2023-11-21T11:52:53;95758.72;;;9.47;70.64
66479;BME280;53294;47.912;13.526;2023-11-21T11:55:23;95764.31;;;9.51;70.79
66479;BME280;53294;47.912;13.526;2023-11-21T11:57:52;95751.28;;;9.44;71.07
66479;BME280;53294;47.912;13.526;2023-11-21T12:00:21;95769.03;;;9.12;72.32
66479;BME280;53294;47.912;13.526;2023-11-21T12:02:53;95764.34;;;9.04;72.16
66479;BME280;53294;47.912;13.526;2023-11-21T12:05:21;95759.31;;;9.16;72.10
66479;BME280;53294;47.912;13.526;2023-11-21T12:07:51;95756.94;;;9.29;72.18
66479;BME280;53294;47.912;13.526;2023-11-21T12:10:25;95755.84;;;9.58;71.25
66479;BME280;53294;47.912;13.526;2023-11-21T12:12:55;95746.03;;;9.67;70.61
66479;BME280;53294;47.912;13.526;2023-11-21T12:15:22;95751.56;;;9.70;70.23
66479;BME280;53294;47.912;13.526;2023-11-21T12:17:50;95753.75;;;9.82;69.90
66479;BME280;53294;47.912;13.526;2023-11-21T12:20:22;95747.19;;;9.88;68.97
66479;BME280;53294;47.912;13.526;2023-11-21T12:22:57;95744.22;;;9.76;68.75
66479;BME280;53294;47.912;13.526;2023-11-21T12:25:28;95744.44;;;9.52;68.36
66479;BME280;53294;47.912;13.526;2023-11-21T12:27:56;95751.19;;;9.49;68.26
66479;BME280;53294;47.912;13.526;2023-11-21T12:30:26;95743.66;;;9.38;69.74
66479;BME280;53294;47.912;13.526;2023-11-21T12:32:55;95743.84;;;9.41;71.32
66479;BME280;53294;47.912;13.526;2023-11-21T12:35:24;95750.00;;;9.28;71.91
66479;BME280;53294;47.912;13.526;2023-11-21T12:37:53;95750.31;;;9.26;72.17
66479;BME280;53294;47.912;13.526;2023-11-21T12:40:20;95744.94;;;9.12;72.88
66479;BME280;53294;47.912;13.526;2023-11-21T12:42:54;95747.34;;;8.81;74.18
66479;BME280;53294;47.912;13.526;2023-11-21T12:45:27;95754.56;;;8.48;75.65
66479;BME280;53294;47.912;13.526;2023-11-21T12:48:02;95754.00;;;8.13;77.60
66479;BME280;53294;47.912;13.526;2023-11-21T12:50:35;95749.56;;;7.84;79.82
66479;BME280;53294;47.912;13.526;2023-11-21T12:53:08;95752.09;;;7.75;80.65
66479;BME280;53294;47.912;13.526;2023-11-21T12:55:36;95749.06;;;7.82;81.11
66479;BME280;53294;47.912;13.526;2023-11-21T12:58:08;95757.50;;;7.70;82.85
66479;BME280;53294;47.912;13.526;2023-11-21T13:00:47;95761.28;;;7.45;83.80
66479;BME280;53294;47.912;13.526;2023-11-21T13:03:17;95756.34;;;7.33;85.56
66479;BME280;53294;47.912;13.526;2023-11-21T13:05:50;95753.66;;;7.33;86.00
66479;BME280;53294;47.912;13.526;2023-11-21T13:08:20;95759.34;;;7.26;85.68
66479;BME280;53294;47.912;13.526;2023-11-21T13:10:50;95755.47;;;7.37;85.22
66479;BME280;53294;47.912;13.526;2023-11-21T13:13:18;95746.84;;;7.46;85.77
66479;BME280;53294;47.912;13.526;2023-11-21T13:15:55;95749.97;;;7.53;83.87
66479;BME280;53294;47.912;13.526;2023-11-21T13:18:28;95760.34;;;7.79;83.61